Time;durP1;ratioP1;P1;durP2;ratioP2;P2;SDS_P1;SDS_P2;PMS_P1;PMS_P2;Temp;Humidity;BMP_temperature;BMP_pressure;BME280_temperature;BME280_humidity;BME280_pressure;Samples;Min_cycle;Max_cycle;Signal;HPM_P1;HPM_P2
2021/11/18 00:01:28;;;;;;;22.85;5.93;;;7.50;99.90;;;;;;5133285;27;20046;-44
2021/11/18 00:04:07;;;;;;;20.77;5.50;;;7.50;99.90;;;;;;5151618;27;20038;-47
2021/11/18 00:06:33;;;;;;;22.05;5.82;;;7.60;99.90;;;;;;5108099;27;20050;-46
2021/11/18 00:08:59;;;;;;;22.02;6.60;;;7.70;99.90;;;;;;5141156;27;20269;-45
2021/11/18 00:11:25;;;;;;;19.55;5.80;;;7.70;99.90;;;;;;5149462;27;20058;-45
2021/11/18 00:13:54;;;;;;;26.05;5.70;;;7.70;99.90;;;;;;5145416;27;20043;-45
2021/11/18 00:16:21;;;;;;;21.27;6.30;;;7.70;99.90;;;;;;5149597;27;20278;-46
2021/11/18 00:18:47;;;;;;;23.90;5.68;;;7.70;99.90;;;;;;5150198;27;20039;-44
2021/11/18 00:21:26;;;;;;;18.98;6.70;;;7.70;99.90;;;;;;5109694;27;20046;-48
2021/11/18 00:23:56;;;;;;;19.27;5.20;;;7.80;99.90;;;;;;5123529;27;20485;-45
2021/11/18 00:26:24;;;;;;;18.20;5.70;;;7.70;99.90;;;;;;5141790;27;20057;-45
2021/11/18 00:28:51;;;;;;;23.90;5.55;;;7.60;99.90;;;;;;5143340;27;20050;-50
2021/11/18 00:31:21;;;;;;;19.98;6.00;;;7.60;99.90;;;;;;5123906;27;20045;-47
2021/11/18 00:33:48;;;;;;;21.65;5.43;;;7.60;99.90;;;;;;5107545;27;20146;-50
2021/11/18 00:36:15;;;;;;;18.60;6.00;;;7.50;99.90;;;;;;5142505;27;20054;-46
2021/11/18 00:38:43;;;;;;;22.65;6.70;;;7.60;99.90;;;;;;5126949;27;20066;-51
2021/11/18 00:41:11;;;;;;;23.13;6.93;;;7.60;99.90;;;;;;5145164;27;20065;-52
2021/11/18 00:43:37;;;;;;;18.75;6.43;;;7.60;99.90;;;;;;5118755;27;20368;-45
2021/11/18 00:46:03;;;;;;;25.38;6.50;;;7.60;99.90;;;;;;5146024;27;20548;-45
2021/11/18 00:48:29;;;;;;;17.10;5.82;;;7.60;99.90;;;;;;5142414;27;20078;-46
2021/11/18 00:50:59;;;;;;;19.35;6.57;;;7.50;99.90;;;;;;5127120;27;20038;-51
2021/11/18 00:53:26;;;;;;;24.92;5.90;;;7.60;99.90;;;;;;5122375;27;20046;-52
2021/11/18 00:55:56;;;;;;;19.13;6.25;;;7.60;99.90;;;;;;5127446;27;20452;-54
2021/11/18 00:58:24;;;;;;;21.27;6.50;;;7.50;99.90;;;;;;5147848;27;20066;-53
2021/11/18 01:00:51;;;;;;;19.83;6.25;;;7.60;99.90;;;;;;5127591;27;20047;-45
2021/11/18 01:03:21;;;;;;;26.58;6.97;;;7.50;99.90;;;;;;5125429;27;20045;-46
2021/11/18 01:05:49;;;;;;;23.05;6.40;;;7.50;99.90;;;;;;5145510;27;20374;-46
2021/11/18 01:08:15;;;;;;;22.40;7.10;;;7.50;99.90;;;;;;5126664;27;20497;-45
2021/11/18 01:11:05;;;;;;;20.10;5.97;;;7.50;99.90;;;;;;5111179;27;20046;-48
2021/11/18 01:13:33;;;;;;;18.63;6.40;;;7.50;99.90;;;;;;5148009;27;20042;-46
2021/11/18 01:16:04;;;;;;;21.58;5.90;;;7.50;99.90;;;;;;5127468;27;20061;-46
2021/11/18 01:18:31;;;;;;;22.27;6.85;;;7.50;99.90;;;;;;5148572;27;20039;-47
2021/11/18 01:20:59;;;;;;;22.83;6.40;;;7.50;99.90;;;;;;5126304;27;20047;-48
2021/11/18 01:23:30;;;;;;;22.00;6.55;;;7.50;99.90;;;;;;5126385;27;20073;-45
2021/11/18 01:25:57;;;;;;;18.90;6.50;;;7.40;99.90;;;;;;5114397;27;20034;-48
2021/11/18 01:28:25;;;;;;;22.92;6.97;;;7.40;99.90;;;;;;5146797;27;20030;-50
2021/11/18 01:30:52;;;;;;;25.35;8.05;;;7.40;99.90;;;;;;5126490;27;20082;-45
2021/11/18 01:33:22;;;;;;;23.15;7.22;;;7.40;99.90;;;;;;5108438;27;20050;-46
2021/11/18 01:35:49;;;;;;;22.50;7.40;;;7.40;99.90;;;;;;5126552;27;20481;-46
2021/11/18 01:38:16;;;;;;;23.25;7.18;;;7.40;99.90;;;;;;5146137;27;20037;-51
2021/11/18 01:40:48;;;;;;;25.60;8.07;;;7.40;99.90;;;;;;5124827;27;20119;-53
2021/11/18 01:43:29;;;;;;;23.92;6.90;;;7.40;99.90;;;;;;5092193;27;20052;-54
2021/11/18 01:45:57;;;;;;;23.25;7.68;;;7.40;99.90;;;;;;5125164;27;20101;-52
2021/11/18 01:48:24;;;;;;;21.08;7.00;;;7.40;99.90;;;;;;5123905;27;20050;-45
2021/11/18 01:50:52;;;;;;;29.52;8.38;;;7.40;99.90;;;;;;5107227;27;20049;-45
2021/11/18 01:53:36;;;;;;;22.00;7.47;;;7.40;99.90;;;;;;5109693;27;20143;-47
2021/11/18 01:56:18;;;;;;;24.70;8.35;;;7.40;99.90;;;;;;5123970;27;20496;-46
2021/11/18 01:58:49;;;;;;;27.48;9.32;;;7.40;99.90;;;;;;5107939;27;20047;-46
2021/11/18 02:01:23;;;;;;;23.25;7.63;;;7.40;99.90;;;;;;5128962;27;20091;-46
2021/11/18 02:03:50;;;;;;;23.90;8.55;;;7.50;99.90;;;;;;5117284;27;20045;-51
2021/11/18 02:06:28;;;;;;;26.95;8.55;;;7.50;99.90;;;;;;5128712;27;20038;-50
2021/11/18 02:08:54;;;;;;;27.08;8.02;;;7.50;99.90;;;;;;5110079;27;20049;-53
2021/11/18 02:11:42;;;;;;;26.40;8.88;;;7.60;99.90;;;;;;5130331;27;20267;-50
2021/11/18 02:14:14;;;;;;;32.88;9.82;;;7.60;99.90;;;;;;5130228;27;20046;-45
2021/11/18 02:16:42;;;;;;;26.02;9.52;;;7.60;99.90;;;;;;5112208;27;20125;-47
2021/11/18 02:19:10;;;;;;;30.23;8.20;;;7.70;99.90;;;;;;5094591;27;20569;-46
2021/11/18 02:21:40;;;;;;;29.55;9.05;;;7.60;99.90;;;;;;5110865;27;20100;-47
2021/11/18 02:24:14;;;;;;;28.52;8.80;;;7.60;99.90;;;;;;5126793;27;20050;-54
2021/11/18 02:26:42;;;;;;;24.00;9.95;;;7.70;99.90;;;;;;5111000;27;20042;-52
2021/11/18 02:29:08;;;;;;;22.58;8.18;;;7.70;99.90;;;;;;5106546;27;20066;-54
2021/11/18 02:31:42;;;;;;;25.70;7.97;;;7.70;99.90;;;;;;5124264;27;20070;-49
2021/11/18 02:34:13;;;;;;;30.67;8.25;;;7.70;99.90;;;;;;5097246;27;20582;-48
2021/11/18 02:36:40;;;;;;;31.30;9.15;;;7.70;99.90;;;;;;5129220;27;20087;-48
2021/11/18 02:39:07;;;;;;;23.10;8.93;;;7.70;99.90;;;;;;5127685;27;20101;-48
2021/11/18 02:41:34;;;;;;;32.53;9.05;;;7.80;99.90;;;;;;5127126;27;20053;-51
2021/11/18 02:44:04;;;;;;;28.33;8.95;;;7.80;99.90;;;;;;5128929;27;20107;-53
2021/11/18 02:46:30;;;;;;;30.83;9.43;;;7.80;99.90;;;;;;5129421;27;20039;-51
2021/11/18 02:48:56;;;;;;;23.52;8.68;;;7.80;99.90;;;;;;5111852;27;20066;-53
2021/11/18 02:51:26;;;;;;;27.67;9.70;;;7.80;99.90;;;;;;5110879;27;20099;-52
2021/11/18 02:53:55;;;;;;;32.20;9.25;;;7.80;99.90;;;;;;5123806;27;20047;-52
2021/11/18 02:56:24;;;;;;;30.67;8.13;;;7.80;99.90;;;;;;5125561;27;20054;-51
2021/11/18 02:58:50;;;;;;;24.05;9.00;;;7.90;99.90;;;;;;5120341;27;20050;-52
2021/11/18 03:01:25;;;;;;;25.52;9.32;;;7.80;99.90;;;;;;5129178;27;20069;-50
2021/11/18 03:03:53;;;;;;;29.60;9.05;;;7.80;99.90;;;;;;5102732;27;20050;-49
2021/11/18 03:06:19;;;;;;;28.92;9.57;;;7.80;99.90;;;;;;5122668;27;20047;-51
2021/11/18 03:08:47;;;;;;;24.35;9.02;;;7.90;99.90;;;;;;5124361;27;20053;-51
2021/11/18 03:11:16;;;;;;;25.27;10.45;;;7.90;99.90;;;;;;5126268;27;20055;-46
2021/11/18 03:13:42;;;;;;;29.02;9.07;;;7.90;99.90;;;;;;5127255;27;20053;-50
2021/11/18 03:16:10;;;;;;;22.17;9.63;;;7.90;99.90;;;;;;5105790;27;20043;-54
2021/11/18 03:18:38;;;;;;;27.52;8.23;;;7.90;99.90;;;;;;5117452;27;20580;-52
2021/11/18 03:21:08;;;;;;;30.90;8.70;;;7.90;99.90;;;;;;5127935;27;20691;-53
2021/11/18 03:23:36;;;;;;;27.10;9.82;;;7.90;99.90;;;;;;5107076;27;20050;-52
2021/11/18 03:26:09;;;;;;;26.35;8.88;;;7.90;99.90;;;;;;5126042;27;20103;-53
2021/11/18 03:28:36;;;;;;;27.58;8.57;;;7.90;99.90;;;;;;5130364;27;20042;-49
2021/11/18 03:31:06;;;;;;;29.98;9.02;;;7.90;99.90;;;;;;5125925;27;20046;-50
2021/11/18 03:33:43;;;;;;;27.98;9.38;;;7.90;99.90;;;;;;5127219;27;20043;-50
2021/11/18 03:36:09;;;;;;;32.97;9.70;;;7.90;99.90;;;;;;5093595;27;20039;-52
2021/11/18 03:38:38;;;;;;;27.77;9.32;;;7.90;99.90;;;;;;5108097;27;20045;-52
2021/11/18 03:41:20;;;;;;;20.10;7.50;;;7.90;99.90;;;;;;5125291;27;20050;-48
2021/11/18 03:43:58;;;;;;;25.58;10.02;;;7.90;99.90;;;;;;5122906;27;20419;-51
2021/11/18 03:46:28;;;;;;;24.02;9.02;;;7.90;99.90;;;;;;5127581;27;20039;-45
2021/11/18 03:48:55;;;;;;;27.50;9.00;;;7.90;99.90;;;;;;5109344;27;20103;-45
2021/11/18 03:51:23;;;;;;;33.25;8.77;;;7.80;99.90;;;;;;5109854;27;20057;-46
2021/11/18 03:53:49;;;;;;;26.10;9.48;;;7.90;99.90;;;;;;5124969;27;20168;-46
2021/11/18 03:56:22;;;;;;;26.67;8.20;;;7.90;99.90;;;;;;5124759;27;20041;-50
2021/11/18 03:58:48;;;;;;;27.83;9.10;;;7.90;99.90;;;;;;5106558;27;20046;-46
2021/11/18 04:01:16;;;;;;;22.95;9.13;;;8.00;99.90;;;;;;5107957;27;20047;-49
2021/11/18 04:03:43;;;;;;;22.00;8.57;;;8.00;99.90;;;;;;5089985;27;20500;-48
2021/11/18 04:06:10;;;;;;;30.67;8.70;;;8.00;99.90;;;;;;5127292;27;20031;-47
2021/11/18 04:08:52;;;;;;;30.05;8.73;;;8.00;99.90;;;;;;5125179;27;20564;-46
2021/11/18 04:11:19;;;;;;;35.47;8.55;;;8.00;99.90;;;;;;5109578;27;20093;-45
2021/11/18 04:13:45;;;;;;;26.38;8.65;;;8.00;99.90;;;;;;5125868;27;20076;-45
2021/11/18 04:16:11;;;;;;;28.38;9.27;;;8.10;99.90;;;;;;5122064;27;20055;-45
2021/11/18 04:18:37;;;;;;;28.08;8.32;;;8.00;99.90;;;;;;5139133;27;21016;-47
2021/11/18 04:21:03;;;;;;;28.63;9.20;;;8.10;99.90;;;;;;5140088;27;20047;-45
2021/11/18 04:23:30;;;;;;;27.88;7.95;;;8.10;99.90;;;;;;5120406;27;20512;-45
2021/11/18 04:25:57;;;;;;;35.60;8.80;;;8.20;99.90;;;;;;5142832;27;20061;-48
2021/11/18 04:28:24;;;;;;;33.55;10.77;;;8.10;99.90;;;;;;5145015;27;20050;-53
2021/11/18 04:30:57;;;;;;;26.33;8.23;;;8.20;99.90;;;;;;5121775;27;20152;-53
2021/11/18 04:33:29;;;;;;;27.90;9.05;;;8.20;99.90;;;;;;5124841;27;20049;-51
2021/11/18 04:35:56;;;;;;;33.30;8.40;;;8.20;99.90;;;;;;5124815;27;20079;-51
2021/11/18 04:38:25;;;;;;;23.60;8.30;;;8.20;99.90;;;;;;5130080;27;20110;-51
2021/11/18 04:40:53;;;;;;;25.35;8.70;;;8.30;99.90;;;;;;5131404;27;20439;-52
2021/11/18 04:43:20;;;;;;;26.70;9.45;;;8.20;99.90;;;;;;5128601;27;20088;-52
2021/11/18 04:45:50;;;;;;;25.13;8.55;;;8.20;99.90;;;;;;5127164;27;20501;-53
2021/11/18 04:48:17;;;;;;;25.88;8.63;;;8.20;99.90;;;;;;5126300;27;20035;-53
2021/11/18 04:50:43;;;;;;;22.00;8.68;;;8.20;99.90;;;;;;5126953;27;20054;-51
2021/11/18 04:53:10;;;;;;;24.48;9.43;;;8.30;99.90;;;;;;5117277;27;20079;-50
2021/11/18 04:55:37;;;;;;;23.60;7.53;;;8.30;99.90;;;;;;5144183;27;20163;-51
2021/11/18 04:58:05;;;;;;;28.38;8.82;;;8.20;99.90;;;;;;5126184;27;20126;-50
2021/11/18 05:00:36;;;;;;;28.13;9.05;;;8.20;99.90;;;;;;5118739;27;20050;-50
2021/11/18 05:03:03;;;;;;;30.60;8.90;;;8.20;99.90;;;;;;5109396;27;20039;-50
2021/11/18 05:05:33;;;;;;;26.17;8.45;;;8.20;99.90;;;;;;5123678;27;20104;-49
2021/11/18 05:08:00;;;;;;;27.80;7.63;;;8.20;99.90;;;;;;5143486;27;20126;-44
2021/11/18 05:10:27;;;;;;;28.10;8.50;;;8.20;99.90;;;;;;5144537;27;20050;-46
2021/11/18 05:12:54;;;;;;;23.25;8.45;;;8.20;99.90;;;;;;5107169;27;20057;-44
2021/11/18 05:15:25;;;;;;;25.90;7.47;;;8.20;99.90;;;;;;5125292;27;20049;-45
2021/11/18 05:17:52;;;;;;;30.55;8.38;;;8.20;99.90;;;;;;5125494;27;20057;-53
2021/11/18 05:20:20;;;;;;;23.35;7.82;;;8.20;99.90;;;;;;5143397;27;20043;-53
2021/11/18 05:22:48;;;;;;;29.20;8.90;;;8.20;99.90;;;;;;5114112;27;20066;-48
2021/11/18 05:25:16;;;;;;;28.02;9.48;;;8.20;99.90;;;;;;5127946;27;20130;-50
2021/11/18 05:27:43;;;;;;;24.85;8.00;;;8.20;99.90;;;;;;5108058;27;20532;-48
2021/11/18 05:30:12;;;;;;;30.38;9.85;;;8.30;99.90;;;;;;5123419;27;20150;-51
2021/11/18 05:32:41;;;;;;;25.58;7.80;;;8.20;99.90;;;;;;5081876;27;20054;-52
2021/11/18 05:35:29;;;;;;;25.35;8.10;;;8.20;99.90;;;;;;5143263;27;20431;-49
2021/11/18 05:37:57;;;;;;;25.98;7.75;;;8.20;99.90;;;;;;5121428;27;20042;-52
2021/11/18 05:40:24;;;;;;;25.25;7.65;;;8.20;99.90;;;;;;5144169;27;20047;-54
2021/11/18 05:42:52;;;;;;;28.38;8.40;;;8.20;99.90;;;;;;5125612;27;20050;-52
2021/11/18 05:45:22;;;;;;;25.35;8.73;;;8.20;99.90;;;;;;5131026;27;20325;-53
2021/11/18 05:48:24;;;;;;;29.65;7.63;;;8.20;99.90;;;;;;5063746;28;20040;-53
2021/11/18 05:50:55;;;;;;;24.45;7.78;;;8.20;99.90;;;;;;5050163;28;20056;-53
2021/11/18 05:53:30;;;;;;;22.35;8.27;;;8.20;99.90;;;;;;5055971;28;20071;-48
2021/11/18 05:55:59;;;;;;;27.38;8.55;;;8.20;99.90;;;;;;5080587;28;20048;-48
2021/11/18 05:58:26;;;;;;;26.70;7.78;;;8.20;99.90;;;;;;5066575;28;20028;-52
2021/11/18 06:00:52;;;;;;;29.65;8.95;;;8.20;99.90;;;;;;5082830;28;20045;-53
2021/11/18 06:03:21;;;;;;;29.45;8.07;;;8.20;99.90;;;;;;5066574;28;20058;-52
2021/11/18 06:05:48;;;;;;;26.35;7.85;;;8.20;99.90;;;;;;5050249;28;20127;-49
2021/11/18 06:08:14;;;;;;;25.88;8.15;;;8.20;99.90;;;;;;5083659;28;20044;-53
2021/11/18 06:10:41;;;;;;;21.73;7.72;;;8.10;99.90;;;;;;5082864;28;20047;-51
2021/11/18 06:13:08;;;;;;;30.88;8.85;;;8.20;99.90;;;;;;5066541;28;20048;-53
2021/11/18 06:15:39;;;;;;;36.10;9.10;;;8.20;99.90;;;;;;5081346;28;20399;-50
2021/11/18 06:18:07;;;;;;;34.17;8.65;;;8.20;99.90;;;;;;5080924;28;20126;-49
2021/11/18 06:20:35;;;;;;;26.00;8.07;;;8.20;99.90;;;;;;5066553;28;20118;-51
2021/11/18 06:23:03;;;;;;;28.77;8.48;;;8.20;99.90;;;;;;5118100;27;20046;-54
2021/11/18 06:25:31;;;;;;;24.85;8.05;;;8.20;99.90;;;;;;5128184;27;20042;-46
2021/11/18 06:27:58;;;;;;;26.85;7.88;;;8.20;99.90;;;;;;5127947;27;20090;-46
2021/11/18 06:30:31;;;;;;;21.90;7.78;;;8.20;99.90;;;;;;5103796;27;20454;-53
2021/11/18 06:32:59;;;;;;;29.65;8.85;;;8.20;99.90;;;;;;5111031;27;20052;-53
2021/11/18 06:35:26;;;;;;;29.20;8.82;;;8.20;99.90;;;;;;5128346;27;20493;-50
2021/11/18 06:37:53;;;;;;;30.52;7.93;;;8.20;99.90;;;;;;5126103;27;20057;-51
2021/11/18 06:40:20;;;;;;;30.35;7.80;;;8.30;99.90;;;;;;5146419;27;20055;-53
2021/11/18 06:42:47;;;;;;;22.38;7.07;;;8.20;99.90;;;;;;5101498;27;20039;-54
2021/11/18 06:45:33;;;;;;;29.40;8.80;;;8.20;99.90;;;;;;5108773;27;20164;-45
2021/11/18 06:48:08;;;;;;;26.67;8.38;;;8.20;99.90;;;;;;5127280;27;20496;-45
2021/11/18 06:50:35;;;;;;;29.15;7.38;;;8.20;99.90;;;;;;5091346;27;20078;-46
2021/11/18 06:53:07;;;;;;;26.63;7.32;;;8.20;99.90;;;;;;5111302;27;20046;-48
2021/11/18 06:55:33;;;;;;;24.42;6.65;;;8.20;99.90;;;;;;5128390;27;20054;-48
2021/11/18 06:58:01;;;;;;;27.58;7.80;;;8.20;99.90;;;;;;5115016;27;20397;-50
2021/11/18 07:00:27;;;;;;;26.38;6.97;;;8.20;99.90;;;;;;5143653;27;20382;-46
2021/11/18 07:02:53;;;;;;;21.55;7.25;;;8.20;99.90;;;;;;5130576;27;20039;-58
2021/11/18 07:05:21;;;;;;;25.35;8.18;;;8.30;99.90;;;;;;5115931;27;20050;-52
2021/11/18 07:07:48;;;;;;;28.58;7.18;;;8.30;99.90;;;;;;5127737;27;20501;-50
2021/11/18 07:10:15;;;;;;;27.75;7.45;;;8.30;99.90;;;;;;5132916;27;20046;-50
2021/11/18 07:12:52;;;;;;;21.33;6.60;;;8.30;99.90;;;;;;5133309;27;20047;-48
2021/11/18 07:15:20;;;;;;;28.58;8.05;;;8.30;99.90;;;;;;5133080;27;20099;-49
2021/11/18 07:17:47;;;;;;;33.03;8.60;;;8.30;99.90;;;;;;5133095;27;20043;-52
2021/11/18 07:20:14;;;;;;;28.80;8.30;;;8.30;99.90;;;;;;5112774;27;20100;-51
2021/11/18 07:22:40;;;;;;;26.73;8.13;;;8.40;99.90;;;;;;5132907;27;20119;-51
2021/11/18 07:25:13;;;;;;;25.90;7.65;;;8.40;99.90;;;;;;5115592;27;20042;-54
2021/11/18 07:27:42;;;;;;;28.40;8.20;;;8.40;99.90;;;;;;5128945;27;20039;-53
2021/11/18 07:30:10;;;;;;;22.90;7.28;;;8.40;99.90;;;;;;5132192;27;20122;-54
2021/11/18 07:32:38;;;;;;;22.70;7.50;;;8.40;99.90;;;;;;5115148;27;20043;-53
2021/11/18 07:35:09;;;;;;;24.42;7.15;;;8.40;99.90;;;;;;5132872;27;20092;-54
2021/11/18 07:37:36;;;;;;;26.48;7.55;;;8.40;99.90;;;;;;5109574;27;20039;-50
2021/11/18 07:40:08;;;;;;;25.05;6.88;;;8.40;99.90;;;;;;5146116;27;20466;-54
2021/11/18 07:42:36;;;;;;;24.42;7.15;;;8.50;99.90;;;;;;5132332;27;20055;-56
2021/11/18 07:45:24;;;;;;;20.98;7.35;;;8.50;99.90;;;;;;5145417;27;20034;-55
2021/11/18 07:48:09;;;;;;;28.92;7.70;;;8.50;99.90;;;;;;5149120;27;20043;-52
2021/11/18 07:50:37;;;;;;;26.35;6.65;;;8.50;99.90;;;;;;5131993;27;20121;-57
2021/11/18 07:53:03;;;;;;;27.98;6.82;;;8.50;99.90;;;;;;5143796;27;20039;-53
2021/11/18 07:55:29;;;;;;;23.65;7.05;;;8.50;99.90;;;;;;5096416;27;20179;-45
2021/11/18 07:57:55;;;;;;;25.98;6.40;;;8.50;99.90;;;;;;5132337;27;20517;-55
2021/11/18 08:00:24;;;;;;;22.83;6.20;;;8.60;99.90;;;;;;5148095;27;20082;-53
2021/11/18 08:03:11;;;;;;;22.23;6.72;;;8.60;99.90;;;;;;5130076;27;20089;-55
2021/11/18 08:05:57;;;;;;;25.10;7.68;;;8.50;99.90;;;;;;5124437;27;20035;-55
2021/11/18 08:08:25;;;;;;;26.10;7.10;;;8.60;99.90;;;;;;5147248;27;20042;-53
2021/11/18 08:10:53;;;;;;;25.90;6.97;;;8.60;99.90;;;;;;5131866;27;20043;-53
2021/11/18 08:13:19;;;;;;;18.10;5.82;;;8.70;99.90;;;;;;5131249;27;20039;-55
2021/11/18 08:15:46;;;;;;;29.65;7.13;;;8.80;99.90;;;;;;5113943;27;20133;-52
2021/11/18 08:18:12;;;;;;;24.90;5.72;;;8.80;99.90;;;;;;5150089;27;20039;-55
2021/11/18 08:20:39;;;;;;;23.77;6.95;;;8.90;99.90;;;;;;5131442;27;20093;-55
2021/11/18 08:23:07;;;;;;;25.77;8.43;;;9.00;99.90;;;;;;5113154;27;20035;-55
2021/11/18 08:25:35;;;;;;;25.08;7.40;;;9.00;99.90;;;;;;5133081;27;20113;-56
2021/11/18 08:28:03;;;;;;;23.70;5.80;;;9.10;99.90;;;;;;5132506;27;20042;-55
2021/11/18 08:30:33;;;;;;;25.00;6.20;;;9.10;99.90;;;;;;5131697;27;20050;-55
2021/11/18 08:33:01;;;;;;;26.55;7.57;;;9.10;99.90;;;;;;5109868;27;20090;-54
2021/11/18 08:35:32;;;;;;;28.65;6.55;;;9.10;99.90;;;;;;5112086;28;20397;-54
2021/11/18 08:38:04;;;;;;;22.55;6.03;;;9.10;99.90;;;;;;5131418;27;20049;-54
2021/11/18 08:40:35;;;;;;;23.90;7.00;;;9.00;99.90;;;;;;5103791;27;20493;-56
2021/11/18 08:43:03;;;;;;;24.55;6.35;;;9.10;99.90;;;;;;5131532;27;20079;-52
2021/11/18 08:45:32;;;;;;;23.75;6.07;;;9.10;99.90;;;;;;5131300;27;20053;-56
2021/11/18 08:47:59;;;;;;;23.30;6.43;;;9.20;99.90;;;;;;5128136;27;20047;-54
2021/11/18 08:50:27;;;;;;;22.80;6.53;;;9.20;99.90;;;;;;5127920;27;20050;-48
2021/11/18 08:52:55;;;;;;;16.88;6.50;;;9.20;99.90;;;;;;5131169;27;20047;-46
2021/11/18 08:55:29;;;;;;;17.23;6.40;;;9.30;99.90;;;;;;5131128;27;20058;-48
2021/11/18 08:57:56;;;;;;;23.23;6.18;;;9.40;99.90;;;;;;5112476;27;20043;-48
2021/11/18 09:00:42;;;;;;;25.88;6.75;;;9.40;99.90;;;;;;5131468;27;20043;-47
2021/11/18 09:03:18;;;;;;;26.23;7.13;;;9.50;99.90;;;;;;5131600;27;20039;-54
2021/11/18 09:05:46;;;;;;;27.80;6.70;;;9.50;99.90;;;;;;5105897;27;20497;-54
2021/11/18 09:08:12;;;;;;;22.42;5.97;;;9.50;99.90;;;;;;5128583;27;20417;-54
2021/11/18 09:10:42;;;;;;;28.45;6.65;;;9.50;99.90;;;;;;5106048;27;20038;-53
2021/11/18 09:13:10;;;;;;;28.00;7.20;;;9.50;99.90;;;;;;5120686;27;20405;-54
2021/11/18 09:15:38;;;;;;;23.05;7.25;;;9.50;99.90;;;;;;5129591;27;20061;-54
2021/11/18 09:18:09;;;;;;;25.98;6.38;;;9.40;99.90;;;;;;5132011;27;20199;-53
2021/11/18 09:20:55;;;;;;;23.10;6.95;;;9.40;99.90;;;;;;5149067;27;20592;-46
2021/11/18 09:23:37;;;;;;;27.08;7.35;;;9.40;99.90;;;;;;5130641;27;20035;-47
2021/11/18 09:26:07;;;;;;;25.48;6.40;;;9.50;99.90;;;;;;5128646;27;20050;-46
2021/11/18 09:28:34;;;;;;;22.88;6.30;;;9.60;99.90;;;;;;5132823;27;20402;-46
2021/11/18 09:31:35;;;;;;;19.30;6.05;;;9.70;99.90;;;;;;5059000;28;20040;-45
2021/11/18 09:34:03;;;;;;;25.35;6.18;;;9.80;99.90;;;;;;5048720;28;20037;-46
2021/11/18 09:36:31;;;;;;;20.40;6.60;;;10.30;99.90;;;;;;5031631;28;20048;-47
2021/11/18 09:38:59;;;;;;;25.48;6.22;;;11.00;99.90;;;;;;5060381;28;20124;-57
2021/11/18 09:41:26;;;;;;;23.13;5.93;;;11.60;99.90;;;;;;5049852;28;20048;-56
2021/11/18 09:44:31;;;;;;;20.48;5.30;;;11.70;99.90;;;;;;5047756;28;20090;-57
2021/11/18 09:47:27;;;;;;;22.58;7.78;;;12.20;99.90;;;;;;5069443;28;20040;-49
2021/11/18 09:50:17;;;;;;;21.73;5.43;;;12.60;99.90;;;;;;5058668;28;20686;-48
2021/11/18 09:53:33;;;;;;;15.15;5.13;;;12.70;99.90;;;;;;5064417;28;20457;-48
2021/11/18 09:56:44;;;;;;;19.65;4.53;;;12.70;99.90;;;;;;5044683;28;20113;-50
2021/11/18 09:59:37;;;;;;;22.58;5.20;;;12.60;99.90;;;;;;5051501;28;20490;-51
2021/11/18 10:02:18;;;;;;;23.05;5.75;;;12.90;99.90;;;;;;5066365;28;20572;-47
2021/11/18 10:05:07;;;;;;;23.33;6.60;;;12.90;99.90;;;;;;5045274;27;20070;-47
2021/11/18 10:07:52;;;;;;;17.95;4.72;;;12.70;99.90;;;;;;5118718;27;20035;-47
2021/11/18 10:10:54;;;;;;;18.67;5.10;;;13.10;99.90;;;;;;5102772;27;20091;-48
2021/11/18 10:13:51;;;;;;;17.77;5.28;;;13.50;99.90;;;;;;5126954;27;20047;-52
2021/11/18 10:16:23;;;;;;;20.30;4.82;;;13.60;99.90;;;;;;5123048;27;20046;-56
2021/11/18 10:18:55;;;;;;;22.48;4.72;;;14.00;99.90;;;;;;5104876;27;20046;-53
2021/11/18 10:21:25;;;;;;;21.58;5.00;;;13.70;99.90;;;;;;5122134;27;20039;-55
2021/11/18 10:23:57;;;;;;;20.80;4.93;;;13.80;99.90;;;;;;5129564;27;20125;-55
2021/11/18 10:26:40;;;;;;;24.77;6.25;;;13.60;99.90;;;;;;5147944;27;20077;-54
2021/11/18 10:29:12;;;;;;;19.63;4.90;;;13.60;99.90;;;;;;5128232;27;20129;-53
2021/11/18 10:32:08;;;;;;;18.83;4.70;;;13.50;99.90;;;;;;5147419;27;20133;-51
2021/11/18 10:34:54;;;;;;;20.38;4.85;;;13.60;99.90;;;;;;5151406;27;20039;-51
2021/11/18 10:37:36;;;;;;;18.00;4.60;;;13.70;99.90;;;;;;5093090;27;20628;-49
2021/11/18 10:40:14;;;;;;;15.00;4.32;;;13.80;99.90;;;;;;5152021;27;20134;-47
2021/11/18 10:42:48;;;;;;;21.27;5.25;;;14.10;99.90;;;;;;5147600;27;20038;-46
2021/11/18 10:45:35;;;;;;;14.98;4.70;;;14.30;99.90;;;;;;5137884;27;20035;-47
2021/11/18 10:48:03;;;;;;;18.13;5.47;;;14.10;99.90;;;;;;5116747;27;20108;-49
2021/11/18 10:50:44;;;;;;;21.00;5.70;;;14.30;99.90;;;;;;5113727;27;20157;-48
2021/11/18 10:53:45;;;;;;;21.80;4.88;;;13.90;99.90;;;;;;5132780;27;20454;-51
2021/11/18 10:56:16;;;;;;;16.07;4.07;;;13.90;99.90;;;;;;5031863;28;20076;-54
2021/11/18 10:59:05;;;;;;;18.50;4.32;;;14.10;99.90;;;;;;5047885;28;20044;-55
2021/11/18 11:01:35;;;;;;;20.08;5.25;;;14.20;99.90;;;;;;4972188;28;20691;-55
2021/11/18 11:04:08;;;;;;;20.52;4.47;;;14.40;99.90;;;;;;5008853;28;20056;-50
2021/11/18 11:06:52;;;;;;;19.33;5.57;;;13.90;99.90;;;;;;5003396;28;20343;-47
2021/11/18 11:09:28;;;;;;;19.27;4.80;;;13.50;99.90;;;;;;4987207;28;20141;-50
2021/11/18 11:12:30;;;;;;;18.35;5.32;;;13.10;99.90;;;;;;4989224;28;20041;-50
2021/11/18 11:15:02;;;;;;;;;;;12.70;99.90;;;;;;5006021;28;20049;-56
2021/11/18 11:18:02;;;;;;;26.35;5.47;;;13.20;99.90;;;;;;5001213;28;20016;-55
2021/11/18 11:20:33;;;;;;;17.30;4.55;;;13.60;99.90;;;;;;5001641;28;20041;-54
2021/11/18 11:23:16;;;;;;;22.60;5.38;;;13.90;99.90;;;;;;5004755;28;20049;-55
2021/11/18 11:25:57;;;;;;;22.13;6.07;;;13.80;99.90;;;;;;5006401;28;20147;-55
2021/11/18 11:29:00;;;;;;;19.73;5.25;;;14.30;99.90;;;;;;4973259;28;20133;-55
2021/11/18 11:31:32;;;;;;;21.08;5.38;;;15.00;99.90;;;;;;5027511;28;20102;-55
2021/11/18 11:34:05;;;;;;;;;;;14.80;99.90;;;;;;5076658;28;20057;-55
2021/11/18 11:36:49;;;;;;;21.63;5.72;;;14.30;99.90;;;;;;5069843;28;20113;-54
2021/11/18 11:39:41;;;;;;;19.73;5.70;;;14.30;99.90;;;;;;5082430;28;20049;-56
2021/11/18 11:42:25;;;;;;;24.42;6.47;;;13.70;99.90;;;;;;5095095;28;20040;-53
2021/11/18 11:44:56;;;;;;;21.35;5.85;;;13.10;99.90;;;;;;5102788;28;20519;-54
2021/11/18 11:48:13;;;;;;;24.33;6.88;;;12.90;99.90;;;;;;5098090;28;20078;-56
2021/11/18 11:51:12;;;;;;;23.20;6.22;;;12.70;99.90;;;;;;5057150;28;20525;-55
2021/11/18 11:53:43;;;;;;;23.85;5.93;;;12.50;99.90;;;;;;5047431;28;20420;-55
2021/11/18 11:56:32;;;;;;;20.83;5.53;;;12.40;99.90;;;;;;5041077;28;20052;-55
2021/11/18 11:59:11;;;;;;;21.08;6.10;;;12.20;99.90;;;;;;5066998;28;20056;-53
2021/11/18 12:02:16;;;;;;;26.40;6.80;;;12.30;99.90;;;;;;5041061;28;20048;-55
2021/11/18 12:05:01;;;;;;;20.27;5.90;;;12.30;99.90;;;;;;5026762;28;20471;-55
2021/11/18 12:07:48;;;;;;;23.35;6.60;;;12.30;99.90;;;;;;5026683;28;20037;-55
2021/11/18 12:10:54;;;;;;;23.52;6.10;;;12.40;99.90;;;;;;5009997;28;20053;-55
2021/11/18 12:13:27;;;;;;;24.77;7.57;;;12.50;99.90;;;;;;5026933;28;20053;-55
2021/11/18 12:16:05;;;;;;;22.88;6.47;;;12.40;99.90;;;;;;5009462;28;20521;-57
2021/11/18 12:18:39;;;;;;;26.80;6.78;;;12.40;99.90;;;;;;5025800;28;20119;-55
2021/11/18 12:21:06;;;;;;;24.23;6.60;;;12.30;99.90;;;;;;5023831;28;20049;-48
2021/11/18 12:24:26;;;;;;;21.65;6.38;;;12.30;99.90;;;;;;5023662;28;20562;-49
2021/11/18 12:26:58;;;;;;;25.42;6.22;;;12.30;99.90;;;;;;5005093;28;20100;-52
2021/11/18 12:29:29;;;;;;;24.20;6.80;;;12.30;99.90;;;;;;5024338;28;20124;-51
2021/11/18 12:32:16;;;;;;;22.87;6.73;;;12.30;99.90;;;;;;5024635;28;20404;-50
2021/11/18 12:35:09;;;;;;;19.88;6.43;;;12.10;99.90;;;;;;5024331;28;20041;-56
2021/11/18 12:37:35;;;;;;;27.30;7.82;;;12.10;99.90;;;;;;5013034;28;20475;-49
2021/11/18 12:40:05;;;;;;;19.85;6.90;;;12.00;99.90;;;;;;5019880;28;20048;-48
2021/11/18 12:42:50;;;;;;;22.33;6.80;;;12.00;99.90;;;;;;5063017;28;20087;-50
2021/11/18 12:45:51;;;;;;;26.92;7.00;;;12.00;99.90;;;;;;5054721;28;20044;-49
2021/11/18 12:48:37;;;;;;;26.40;6.65;;;12.00;99.90;;;;;;5068188;28;20521;-52
2021/11/18 12:51:22;;;;;;;23.02;6.28;;;12.00;99.90;;;;;;5055494;28;20168;-51
2021/11/18 12:54:08;;;;;;;24.30;6.72;;;12.00;99.90;;;;;;5054668;28;20076;-48
2021/11/18 12:56:52;;;;;;;27.08;6.88;;;12.00;99.90;;;;;;5038312;28;20128;-51
2021/11/18 12:59:36;;;;;;;22.50;5.82;;;11.90;99.90;;;;;;5057151;28;20041;-51
2021/11/18 13:02:36;;;;;;;24.67;6.22;;;11.90;99.90;;;;;;5092167;28;20466;-49
2021/11/18 13:05:22;;;;;;;25.30;6.68;;;12.00;99.90;;;;;;5040109;28;20307;-51
2021/11/18 13:08:09;;;;;;;23.38;5.65;;;12.00;99.90;;;;;;5060774;28;20061;-51
2021/11/18 13:10:52;;;;;;;24.13;6.72;;;12.00;99.90;;;;;;5041662;28;20060;-47
2021/11/18 13:13:32;;;;;;;22.73;6.45;;;12.10;99.90;;;;;;5056677;28;20056;-50
2021/11/18 13:15:58;;;;;;;23.10;6.07;;;12.10;99.90;;;;;;5057305;28;20447;-54
2021/11/18 13:18:30;;;;;;;27.63;6.63;;;12.00;99.90;;;;;;5037944;28;20098;-55